Bookmark and Share
Track history (hours):
 

Trans Sea

Last reported at 2014-Apr-24 14:27 UTC. Time now 2014-Apr-24 22:10 UTC.
Position N 35°57' W 005°41'.

Length 107 m; draft 6 m.

Type: Ship (hazmat cat B). MMSI: 248887000.

NotesDate/timePositionNaut miles runAvg speedWind from/ knotsBaromVisibWave heightAir tempDewpointWater temp
2014-Apr-24 14:27N 35°57' W 005°41'8 8.7
2014-Apr-24 13:34N 35°59' W 005°32'9 8.9
2014-Apr-24 12:34N 36°02' W 005°21'1110.8
2014-Apr-24 11:33N 36°06' W 005°09'23911.4
2014-Apr-23 14:33N 37°36' W 000°32'1811.9
2014-Apr-23 13:04N 37°50' W 000°20'13012.3
2014-Apr-23 02:31N 39°48' E 000°51'1313.5
2014-Apr-23 01:33N 40°00' E 000°55'1212.1
2014-Apr-23 00:33N 40°12' E 000°58'1312.8
2014-Apr-22 23:33N 40°25' E 001°02'1312.9
2014-Apr-22 22:33N 40°37' E 001°05'1712.3
2014-Apr-22 21:09N 40°54' E 001°10'12 2.1
2014-Apr-22 15:21N 41°06' E 001°14'49 1.0
2014-Apr-20 11:21N 41°15' E 002°18'1012.3
2014-Apr-20 10:33N 41°20' E 002°29'1212.4
2014-Apr-20 09:33N 41°27' E 002°43'1211.8
2014-Apr-20 08:33N 41°34' E 002°56'1312.6
2014-Apr-20 07:33N 41°41' E 003°10'1212.4
2014-Apr-20 06:33N 41°49' E 003°23'1312.9
2014-Apr-20 05:33N 41°59' E 003°34'1313.2
2014-Apr-20 04:33N 42°09' E 003°46'1212.4
2014-Apr-20 03:34N 42°18' E 003°57'1312.8
2014-Apr-20 02:32N 42°28' E 004°08'1212.5
2014-Apr-20 01:33N 42°37' E 004°19'1313.0
2014-Apr-20 00:33N 42°47' E 004°31'1312.5
2014-Apr-19 23:32N 42°56' E 004°42'1611.8
2014-Apr-19 22:09N 43°09' E 004°57'610.8
2014-Apr-19 21:33N 43°15' E 005°00'1010.3
2014-Apr-19 20:33N 43°24' E 004°54'3 2.6
2014-Apr-19 19:32N 43°25' E 004°50'0 0.0
2014-Apr-19 18:33N 43°25' E 004°50'0 0.0
2014-Apr-19 17:33N 43°25' E 004°50'0 0.0
2014-Apr-19 16:33N 43°25' E 004°50'0 0.0
2014-Apr-19 15:33N 43°25' E 004°50'0 0.0
2014-Apr-19 14:33N 43°25' E 004°50'0 0.0
2014-Apr-19 13:33N 43°25' E 004°50'0 0.0
2014-Apr-19 12:34N 43°25' E 004°50'0 0.0
2014-Apr-19 11:33N 43°25' E 004°50'0 0.0
2014-Apr-19 10:33N 43°25' E 004°50'0 0.0
2014-Apr-19 09:33N 43°25' E 004°50'0 0.0
2014-Apr-19 08:33N 43°25' E 004°50'0 0.0
2014-Apr-19 07:33N 43°25' E 004°50'0 0.0
2014-Apr-19 06:33N 43°25' E 004°50'0 0.0
2014-Apr-19 05:33N 43°25' E 004°50'0 0.0
2014-Apr-19 04:33N 43°25' E 004°50'0 0.0
2014-Apr-19 03:33N 43°25' E 004°50'0 0.0
2014-Apr-19 02:33N 43°25' E 004°50'0 0.0
2014-Apr-19 01:33N 43°25' E 004°50'0 0.0
2014-Apr-19 00:33N 43°25' E 004°50'0 0.0
2014-Apr-18 23:33N 43°25' E 004°50'0 0.0
2014-Apr-18 22:33N 43°25' E 004°50'0 0.0
2014-Apr-18 21:33N 43°25' E 004°50'0 0.0
2014-Apr-18 20:33N 43°25' E 004°50'0 0.0
2014-Apr-18 19:33N 43°25' E 004°50'0 0.0
2014-Apr-18 18:33N 43°25' E 004°50'0 0.0
2014-Apr-18 17:33N 43°25' E 004°50'0 0.0
2014-Apr-18 16:33N 43°25' E 004°50'0 0.0
2014-Apr-18 15:33N 43°25' E 004°50'0 0.0
2014-Apr-18 14:33N 43°25' E 004°50'0 0.0
2014-Apr-18 13:33N 43°25' E 004°50'4 4.3
2014-Apr-18 12:33N 43°24' E 004°56'0 0.1
2014-Apr-18 11:33N 43°24' E 004°56'0 0.0
2014-Apr-18 10:33N 43°24' E 004°56'0 0.0
2014-Apr-18 09:33N 43°24' E 004°56'0 0.0
2014-Apr-18 08:33N 43°24' E 004°56'0 0.0
2014-Apr-18 07:33N 43°24' E 004°56'0 0.0
2014-Apr-18 06:33N 43°24' E 004°56'0 0.0
2014-Apr-18 05:33N 43°24' E 004°56'0 0.0
2014-Apr-18 04:33N 43°24' E 004°56'0 0.1
2014-Apr-18 03:33N 43°24' E 004°56'0 0.0
2014-Apr-18 02:33N 43°24' E 004°56'0 0.0
2014-Apr-18 01:33N 43°24' E 004°56'0 0.0
2014-Apr-18 00:33N 43°24' E 004°56'0 0.0
2014-Apr-17 23:33N 43°24' E 004°56'0 0.0
2014-Apr-17 22:33N 43°24' E 004°56'0 0.0
2014-Apr-17 21:33N 43°24' E 004°56'0 0.0
2014-Apr-17 20:33N 43°24' E 004°56'0 0.0
2014-Apr-17 19:33N 43°24' E 004°56'0 0.0
2014-Apr-17 18:33N 43°24' E 004°56'0 0.0
2014-Apr-17 17:33N 43°24' E 004°56'0 0.0
2014-Apr-17 16:33N 43°24' E 004°56'0 0.0
2014-Apr-17 15:33N 43°24' E 004°56'2 1.7
2014-Apr-17 14:33N 43°23' E 004°57'1111.3
2014-Apr-17 13:33N 43°12' E 005°03'2512.6
2014-Apr-17 11:33N 42°50' E 005°19'1311.9
2014-Apr-17 10:30N 42°39' E 005°27'3712.2
2014-Apr-17 07:27N 42°07' E 005°52'23212.0
2014-Apr-16 12:05N 38°47' E 008°27'1011.8
2014-Apr-16 11:12N 38°42' E 008°39'1011.9
2014-Apr-16 10:22N 38°39' E 008°51'1012.1
2014-Apr-16 09:33N 38°35' E 009°03'1212.1
2014-Apr-16 08:32N 38°31' E 009°17'1211.8
2014-Apr-16 07:32N 38°26' E 009°31'21911.5
2014-Apr-15 12:34N 36°52' E 013°41'2512.4
2014-Apr-15 10:33N 36°40' E 014°08'1312.3
2014-Apr-15 09:32N 36°34' E 014°21'  

Dump ship's entire track history

sailing weather and tide predictions

Trans Sea — 9HA2564 — position and weather